createdAt,value
2022-10-10T00:02:12.776Z,4.10
2022-10-10T00:07:14.134Z,3.15
2022-10-10T00:12:15.378Z,2.88
2022-10-10T00:17:16.637Z,3.75
2022-10-10T00:22:17.881Z,3.33
2022-10-10T00:27:19.122Z,2.53
2022-10-10T00:32:20.405Z,3.05
2022-10-10T00:37:21.666Z,3.22
2022-10-10T00:42:22.974Z,2.33
2022-10-10T00:47:24.232Z,4.47
2022-10-10T00:52:25.604Z,3.00
2022-10-10T00:57:26.998Z,2.40
2022-10-10T01:02:28.258Z,4.00
2022-10-10T01:07:31.581Z,3.10
2022-10-10T01:13:11.150Z,3.53
2022-10-10T01:18:24.785Z,4.20
2022-10-10T01:23:53.854Z,4.15
2022-10-10T01:29:07.330Z,3.08
2022-10-10T01:34:22.719Z,5.00
2022-10-10T01:39:40.508Z,4.75
2022-10-10T01:44:46.265Z,4.68
2022-10-10T01:49:51.069Z,3.58
2022-10-10T01:55:23.496Z,2.78
2022-10-10T02:00:25.809Z,3.67
2022-10-10T02:05:45.262Z,5.28
2022-10-10T02:10:52.308Z,4.95
2022-10-10T02:15:57.234Z,3.40
2022-10-10T02:21:01.316Z,4.35
2022-10-10T02:26:03.364Z,3.72
2022-10-10T02:31:11.083Z,3.05
2022-10-10T02:36:15.685Z,5.93
2022-10-10T02:41:20.770Z,3.90
2022-10-10T02:46:23.351Z,4.60
2022-10-10T02:51:28.541Z,3.15
2022-10-10T02:56:31.556Z,4.03
2022-10-10T03:01:32.824Z,3.38
2022-10-10T03:06:34.126Z,3.42
2022-10-10T03:11:35.408Z,4.80
2022-10-10T03:16:36.734Z,4.53
2022-10-10T03:21:38.092Z,5.05
2022-10-10T03:26:39.418Z,6.35
2022-10-10T03:31:40.653Z,5.55
2022-10-10T03:36:42.087Z,4.53
2022-10-10T03:41:43.408Z,3.75
2022-10-10T03:46:44.677Z,5.18
2022-10-10T03:51:46.003Z,3.50
2022-10-10T03:56:47.270Z,5.28
2022-10-10T04:01:48.540Z,7.22
2022-10-10T04:06:49.806Z,3.28
2022-10-10T04:11:51.070Z,3.72
2022-10-10T04:16:52.316Z,4.88
2022-10-10T04:21:53.587Z,3.20
2022-10-10T04:26:55.501Z,5.05
2022-10-10T04:31:56.855Z,5.15
2022-10-10T04:36:58.136Z,6.03
2022-10-10T04:41:59.406Z,3.42
2022-10-10T04:47:00.669Z,4.95
2022-10-10T04:52:01.933Z,6.00
2022-10-10T04:57:04.010Z,5.13
2022-10-10T05:02:05.414Z,6.60
2022-10-10T05:07:06.683Z,4.30
2022-10-10T05:12:07.997Z,6.35
2022-10-10T05:17:09.214Z,3.75
2022-10-10T05:22:10.464Z,5.22
2022-10-10T05:27:11.784Z,6.25
2022-10-10T05:32:13.114Z,5.43
2022-10-10T05:37:14.761Z,5.40
2022-10-10T05:42:16.089Z,8.77
2022-10-10T05:47:17.514Z,5.30
2022-10-10T05:52:18.772Z,8.23
2022-10-10T05:57:20.019Z,6.72
2022-10-10T06:02:21.327Z,6.40
2022-10-10T06:07:22.605Z,7.20
2022-10-10T06:12:23.837Z,5.07
2022-10-10T06:17:25.078Z,5.40
2022-10-10T06:22:27.266Z,6.35
2022-10-10T06:27:28.570Z,5.45
2022-10-10T06:32:29.781Z,6.10
2022-10-10T06:37:31.258Z,8.45
2022-10-10T06:42:33.085Z,13.25
2022-10-10T06:47:34.441Z,7.60
2022-10-10T06:52:36.829Z,8.98
2022-10-10T06:57:38.149Z,8.00
2022-10-10T07:02:40.793Z,9.57
2022-10-10T07:07:43.379Z,8.38
2022-10-10T07:12:45.270Z,8.43
2022-10-10T07:17:50.494Z,10.30
2022-10-10T07:22:54.966Z,9.88
2022-10-10T07:27:57.004Z,10.00
2022-10-10T07:32:58.329Z,10.35
2022-10-10T07:38:00.393Z,7.10
2022-10-10T07:43:01.695Z,8.30
2022-10-10T07:48:03.636Z,8.43
2022-10-10T07:53:06.126Z,10.27
2022-10-10T07:58:09.307Z,10.57
2022-10-10T08:03:12.291Z,11.25
2022-10-10T08:08:13.820Z,9.18
2022-10-10T08:13:15.167Z,14.05
2022-10-10T08:18:16.545Z,14.88
2022-10-10T08:23:20.588Z,15.60
2022-10-10T08:28:24.557Z,11.82
2022-10-10T08:33:27.456Z,10.60
2022-10-10T08:38:29.009Z,14.02
2022-10-10T08:43:37.963Z,12.60
2022-10-10T08:48:40.826Z,16.77
2022-10-10T08:53:47.662Z,10.65
2022-10-10T08:58:55.386Z,10.55
2022-10-10T09:04:02.220Z,8.63
2022-10-10T09:09:34.136Z,8.38
2022-10-10T09:14:46.511Z,7.30
2022-10-10T09:20:18.146Z,6.60
2022-10-10T09:25:26.841Z,7.60
2022-10-10T09:30:31.191Z,5.85
2022-10-10T09:35:37.240Z,5.72
2022-10-10T09:40:45.572Z,7.90
2022-10-10T09:45:53.916Z,6.32
2022-10-10T09:50:55.457Z,6.47
2022-10-10T09:55:58.638Z,6.22
2022-10-10T10:06:21.262Z,7.10
2022-10-10T10:11:30.742Z,4.43
2022-10-10T10:16:38.437Z,5.10
2022-10-10T10:21:51.570Z,4.75
2022-10-10T10:26:52.880Z,4.97
2022-10-10T10:32:25.145Z,5.90
2022-10-10T10:37:57.336Z,4.50
2022-10-10T10:43:32.498Z,5.33
2022-10-10T10:48:58.285Z,5.03
2022-10-10T10:54:14.776Z,4.43
2022-10-10T11:05:25.050Z,4.82
2022-10-10T11:10:20.223Z,5.90
2022-10-10T11:16:05.593Z,5.60
2022-10-10T11:21:09.160Z,6.60
2022-10-10T11:26:17.731Z,4.90
2022-10-10T11:31:43.547Z,6.88
2022-10-10T11:36:46.472Z,8.75
2022-10-10T11:41:56.364Z,5.65
2022-10-10T11:47:14.170Z,4.85
2022-10-10T11:52:35.040Z,5.05
2022-10-10T11:57:43.262Z,6.40
2022-10-10T12:02:46.765Z,4.65
2022-10-10T12:07:53.921Z,4.55
2022-10-10T12:13:01.102Z,6.95
2022-10-10T12:18:02.842Z,5.85
2022-10-10T12:23:29.872Z,5.45
2022-10-10T12:28:58.190Z,3.78
2022-10-10T12:34:06.516Z,4.20
2022-10-10T12:39:10.861Z,3.93
2022-10-10T12:44:15.067Z,4.47
2022-10-10T12:49:24.644Z,4.72
2022-10-10T12:54:31.582Z,6.60
2022-10-10T12:59:35.911Z,6.70
2022-10-10T13:04:42.171Z,5.28
2022-10-10T13:09:47.016Z,6.40
2022-10-10T13:14:48.382Z,5.28
2022-10-10T13:19:50.695Z,6.55
2022-10-10T13:24:53.022Z,4.45
2022-10-10T13:29:55.645Z,6.55
2022-10-10T13:35:04.226Z,6.55
2022-10-10T13:40:06.252Z,5.73
2022-10-10T13:45:27.858Z,4.38
2022-10-10T13:50:56.464Z,5.97
2022-10-10T13:56:00.003Z,5.80
2022-10-10T14:01:04.094Z,4.57
2022-10-10T14:06:07.712Z,5.65
2022-10-10T14:11:17.633Z,6.65
2022-10-10T14:16:18.819Z,7.35
2022-10-10T14:21:20.410Z,7.47
2022-10-10T14:26:21.913Z,9.07
2022-10-10T14:31:23.265Z,7.18
2022-10-10T14:36:25.260Z,7.47
2022-10-10T14:41:26.708Z,5.38
2022-10-10T14:46:28.087Z,4.72
2022-10-10T14:51:34.460Z,6.25
2022-10-10T14:57:07.062Z,6.43
2022-10-10T15:01:57.898Z,10.60
2022-10-10T15:07:12.797Z,6.32
2022-10-10T15:12:15.142Z,7.80
2022-10-10T15:17:16.522Z,7.53
2022-10-10T15:22:18.029Z,6.50
2022-10-10T15:27:22.240Z,9.18
2022-10-10T15:32:23.663Z,4.95
2022-10-10T15:37:26.891Z,6.07
2022-10-10T15:47:29.429Z,7.82
2022-10-10T15:52:30.794Z,7.03
2022-10-10T15:57:32.479Z,6.53
2022-10-10T16:02:33.802Z,3.95
2022-10-10T16:07:42.198Z,4.88
2022-10-10T16:12:45.554Z,6.45
2022-10-10T16:17:46.910Z,6.43
2022-10-10T16:22:48.162Z,7.32
2022-10-10T16:27:49.476Z,9.35
2022-10-10T16:32:50.972Z,9.23
2022-10-10T16:37:52.291Z,12.32
2022-10-10T16:42:53.529Z,8.30
2022-10-10T16:47:54.793Z,5.97
2022-10-10T16:52:56.175Z,10.00
2022-10-10T16:57:59.117Z,10.30
2022-10-10T17:03:00.870Z,7.23
2022-10-10T17:08:02.105Z,8.50
2022-10-10T17:13:04.024Z,11.43
2022-10-10T17:18:09.639Z,10.18
2022-10-10T17:23:12.200Z,11.93
2022-10-10T17:28:14.774Z,8.88
2022-10-10T17:33:18.061Z,10.27
2022-10-10T17:38:38.676Z,9.70
2022-10-10T17:43:41.037Z,10.77
2022-10-10T17:48:42.376Z,8.10
2022-10-10T17:53:44.464Z,12.98
2022-10-10T17:58:47.231Z,9.82
2022-10-10T18:03:48.620Z,11.25
2022-10-10T18:08:51.597Z,13.43
2022-10-10T18:13:53.762Z,12.83
2022-10-10T18:18:55.529Z,7.28
2022-10-10T18:23:56.885Z,12.07
2022-10-10T18:28:58.609Z,9.25
2022-10-10T18:34:01.635Z,11.05
2022-10-10T18:39:06.559Z,7.43
2022-10-10T18:44:11.610Z,8.52
2022-10-10T18:49:14.398Z,10.73
2022-10-10T18:54:18.121Z,10.57
2022-10-10T18:59:23.565Z,9.35
2022-10-10T19:04:27.751Z,9.73
2022-10-10T19:09:36.528Z,11.68
2022-10-10T19:19:56.964Z,8.68
2022-10-10T19:24:58.475Z,9.25
2022-10-10T19:30:07.667Z,11.20
2022-10-10T19:35:12.155Z,11.18
2022-10-10T19:40:13.611Z,10.88
2022-10-10T19:45:14.998Z,9.75
2022-10-10T19:50:17.392Z,9.85
2022-10-10T19:55:20.012Z,9.48
2022-10-10T20:05:47.793Z,25.77
2022-10-10T20:10:51.589Z,20.00
2022-10-10T20:15:52.862Z,8.32
2022-10-10T20:20:54.316Z,10.65
2022-10-10T20:25:57.060Z,7.32
2022-10-10T20:30:58.475Z,12.13
2022-10-10T20:36:02.964Z,12.05
2022-10-10T20:41:06.860Z,9.43
2022-10-10T20:46:10.735Z,9.93
2022-10-10T20:56:13.872Z,9.88
2022-10-10T21:01:17.845Z,10.13
2022-10-10T21:06:32.419Z,9.52
2022-10-10T21:11:34.621Z,9.68
2022-10-10T21:16:39.430Z,7.18
2022-10-10T21:21:40.839Z,9.25
2022-10-10T21:26:42.576Z,10.63
2022-10-10T21:31:43.913Z,8.23
2022-10-10T21:36:46.490Z,9.45
2022-10-10T21:41:47.737Z,10.70
2022-10-10T21:46:49.778Z,5.93
2022-10-10T21:51:52.378Z,12.63
2022-10-10T21:56:53.694Z,11.48
2022-10-10T22:01:55.124Z,8.20
2022-10-10T22:06:56.374Z,7.50
2022-10-10T22:11:57.650Z,8.85
2022-10-10T22:16:58.983Z,12.43
2022-10-10T22:22:00.416Z,8.50
2022-10-10T22:27:01.677Z,9.43
2022-10-10T22:32:02.960Z,8.65
2022-10-10T22:37:04.250Z,12.55
2022-10-10T22:42:05.697Z,7.65
2022-10-10T22:47:07.040Z,9.32
2022-10-10T22:52:09.441Z,10.73
2022-10-10T22:57:10.976Z,10.05
2022-10-10T23:02:12.260Z,9.88
2022-10-10T23:07:15.489Z,7.75
2022-10-10T23:12:16.756Z,9.37
2022-10-10T23:17:18.112Z,7.40
2022-10-10T23:22:19.421Z,7.53
2022-10-10T23:27:20.693Z,9.70
2022-10-10T23:32:23.333Z,8.88
2022-10-10T23:37:25.419Z,10.30
2022-10-10T23:42:26.667Z,9.50
2022-10-10T23:47:27.934Z,9.68
2022-10-10T23:52:29.214Z,9.65
2022-10-10T23:57:31.377Z,11.73
